Time;durP1;ratioP1;P1;durP2;ratioP2;P2;SDS_P1;SDS_P2;PMS_P1;PMS_P2;Temp;Humidity;BMP_temperature;BMP_pressure;BME280_temperature;BME280_humidity;BME280_pressure;Samples;Min_cycle;Max_cycle;Signal;HPM_P1;HPM_P2
2022/11/11 00:02:12;;;;;;;11.90;4.70;;;20.70;70.40;;;;;;214516;1292;26495;-56
2022/11/11 00:07:34;;;;;;;10.40;5.30;;;20.70;70.40;;;;;;214492;1274;24249;-56
2022/11/11 00:13:02;;;;;;;10.40;5.00;;;20.70;70.30;;;;;;215124;1271;22852;-55
2022/11/11 00:30:14;;;;;;;10.90;5.30;;;20.60;70.00;;;;;;214757;1295;25309;-54
2022/11/11 00:35:52;;;;;;;12.50;5.50;;;20.60;70.00;;;;;;214531;1279;22461;-55
2022/11/11 00:41:18;;;;;;;10.30;4.60;;;20.60;70.30;;;;;;214427;1279;23999;-55
2022/11/11 00:52:22;;;;;;;9.40;5.30;;;20.90;69.60;;;;;;214739;1279;22593;-55
2022/11/11 00:58:01;;;;;;;;;;;;;;;;;;;;;
2022/11/11 01:03:39;;;;;;;9.90;5.00;;;21.50;67.60;;;;;;214765;1279;22532;-55
2022/11/11 01:09:10;;;;;;;9.00;5.00;;;21.70;66.80;;;;;;214940;1298;22477;-55
2022/11/11 01:14:35;;;;;;;8.40;4.50;;;21.90;66.30;;;;;;214962;1285;25317;-55
2022/11/11 01:20:00;;;;;;;10.30;4.60;;;22.00;66.20;;;;;;215005;1275;24429;-55
2022/11/11 01:25:23;;;;;;;11.70;5.30;;;22.10;66.70;;;;;;214917;1280;27546;-55
2022/11/11 01:30:45;;;;;;;11.00;4.90;;;22.20;66.00;;;;;;214868;1300;25272;-56
2022/11/11 01:36:11;;;;;;;8.60;4.80;;;22.20;65.60;;;;;;214954;1299;25363;-53
2022/11/11 01:41:38;;;;;;;8.10;5.00;;;22.30;65.60;;;;;;214918;1299;26589;-56
2022/11/11 01:47:04;;;;;;;8.20;4.50;;;22.30;65.10;;;;;;215015;1275;25266;-56
2022/11/11 01:52:37;;;;;;;8.70;4.50;;;22.30;64.90;;;;;;214942;1280;26473;-55
2022/11/11 01:58:05;;;;;;;7.10;4.50;;;22.40;64.80;;;;;;214897;1279;26456;-55
2022/11/11 02:03:32;;;;;;;7.90;4.90;;;22.40;64.60;;;;;;214931;1276;23841;-54
2022/11/11 02:08:55;;;;;;;7.60;4.60;;;22.50;64.50;;;;;;214848;1283;25213;-56
2022/11/11 02:14:36;;;;;;;7.40;4.50;;;22.50;64.40;;;;;;214915;1300;23877;-57
2022/11/11 02:20:02;;;;;;;6.80;4.40;;;22.60;64.10;;;;;;214949;1283;24278;-55
2022/11/11 02:25:29;;;;;;;9.60;4.90;;;22.50;64.10;;;;;;214933;1300;25451;-56
2022/11/11 02:30:52;;;;;;;7.70;5.00;;;22.50;64.20;;;;;;214968;1292;22697;-56
2022/11/11 02:36:15;;;;;;;6.70;4.30;;;22.40;64.50;;;;;;214891;1280;22778;-55
2022/11/11 02:41:56;;;;;;;9.60;4.70;;;22.30;64.80;;;;;;214743;1296;24158;-54
2022/11/11 02:47:19;;;;;;;7.90;4.90;;;22.20;65.00;;;;;;214802;1301;25366;-54
2022/11/11 02:52:44;;;;;;;8.80;4.70;;;22.00;65.10;;;;;;214752;1301;25461;-56
2022/11/11 02:58:07;;;;;;;7.60;4.70;;;21.90;65.40;;;;;;214944;1287;26428;-54
2022/11/11 03:03:30;;;;;;;9.50;4.60;;;21.90;65.60;;;;;;214976;1280;23843;-55
2022/11/11 03:08:59;;;;;;;7.60;4.60;;;21.90;65.90;;;;;;214971;1280;24323;-55
2022/11/11 03:14:22;;;;;;;8.30;5.00;;;21.80;65.90;;;;;;214935;1280;24005;-54
2022/11/11 03:19:45;;;;;;;7.70;4.50;;;21.70;66.50;;;;;;214967;1280;24005;-58
2022/11/11 03:30:50;;;;;;;7.10;4.90;;;21.60;66.10;;;;;;214977;1283;24186;-54
2022/11/11 03:36:13;;;;;;;6.90;4.70;;;21.60;66.40;;;;;;214898;1283;25547;-54
2022/11/11 03:41:35;;;;;;;7.30;4.20;;;21.50;66.10;;;;;;214876;1275;23846;-55
2022/11/11 03:46:58;;;;;;;9.30;4.90;;;21.50;66.20;;;;;;214871;1280;26496;-54
2022/11/11 03:52:20;;;;;;;8.50;4.50;;;21.40;66.30;;;;;;214924;1286;26489;-54
2022/11/11 03:57:44;;;;;;;7.50;4.60;;;21.40;66.30;;;;;;214855;1275;26589;-54
2022/11/11 04:26:00;;;;;;;6.50;4.50;;;21.30;66.60;;;;;;214826;1276;26549;-55
2022/11/11 04:31:23;;;;;;;7.20;4.60;;;21.20;66.50;;;;;;215005;1290;25502;-56
2022/11/11 04:36:46;;;;;;;7.00;4.40;;;21.10;66.80;;;;;;214939;1284;25349;-54
2022/11/11 04:42:08;;;;;;;8.20;4.80;;;21.10;66.60;;;;;;214947;1279;25344;-55
2022/11/11 04:47:34;;;;;;;6.60;4.60;;;21.10;66.70;;;;;;214860;1280;23999;-54
2022/11/11 04:53:01;;;;;;;6.00;4.10;;;21.10;66.70;;;;;;214981;1300;25302;-55
2022/11/11 04:58:26;;;;;;;6.20;4.30;;;21.00;66.70;;;;;;215014;1275;23847;-55
2022/11/11 05:03:48;;;;;;;7.80;4.40;;;21.00;66.80;;;;;;214835;1280;24163;-56
2022/11/11 05:09:11;;;;;;;6.90;4.50;;;21.00;66.90;;;;;;214864;1280;23851;-55
2022/11/11 05:25:59;;;;;;;6.80;4.60;;;20.90;67.00;;;;;;214814;1279;24261;-55
2022/11/11 05:31:22;;;;;;;6.70;4.40;;;20.90;67.00;;;;;;214793;1300;25409;-55
2022/11/11 05:36:45;;;;;;;8.20;5.00;;;20.90;66.90;;;;;;214827;1278;26599;-54
2022/11/11 05:42:08;;;;;;;6.50;4.60;;;20.80;67.10;;;;;;214954;1280;23110;-54
2022/11/11 05:47:30;;;;;;;6.80;5.00;;;20.80;67.10;;;;;;215061;1283;25326;-53
2022/11/11 05:52:55;;;;;;;6.60;4.70;;;20.80;67.10;;;;;;214911;1280;25222;-54
2022/11/11 05:58:18;;;;;;;7.20;4.50;;;20.70;67.10;;;;;;215016;1273;22828;-56
2022/11/11 06:03:40;;;;;;;6.70;4.20;;;20.80;67.00;;;;;;215020;1272;22838;-57
2022/11/11 06:09:03;;;;;;;8.90;4.60;;;21.00;66.90;;;;;;214522;1280;345440;-55
2022/11/11 06:14:29;;;;;;;7.00;4.50;;;21.40;65.90;;;;;;214986;1280;25535;-54
2022/11/11 06:20:10;;;;;;;6.50;4.20;;;21.70;64.90;;;;;;214768;1286;25412;-55
2022/11/11 06:31:26;;;;;;;7.20;4.00;;;22.00;64.40;;;;;;214976;1275;25536;-55
2022/11/11 06:36:48;;;;;;;5.60;3.70;;;22.10;64.00;;;;;;214931;1280;25386;-54
2022/11/11 06:42:12;;;;;;;8.20;4.70;;;22.20;63.70;;;;;;214941;1280;25257;-55
2022/11/11 06:47:35;;;;;;;6.10;3.80;;;22.20;63.60;;;;;;214899;1280;23908;-55
2022/11/11 06:53:09;;;;;;;6.50;4.20;;;22.30;63.30;;;;;;214920;1275;22619;-57
2022/11/11 06:58:32;;;;;;;6.30;4.20;;;22.30;63.30;;;;;;214928;1280;26589;-55
2022/11/11 07:03:55;;;;;;;7.10;4.10;;;22.40;63.10;;;;;;214985;1280;24258;-55
2022/11/11 07:09:22;;;;;;;7.00;4.40;;;22.40;62.80;;;;;;214888;1280;23671;-57
2022/11/11 07:14:44;;;;;;;6.20;4.10;;;22.50;62.70;;;;;;214928;1285;23887;-56
2022/11/11 07:20:09;;;;;;;11.20;5.00;;;22.60;62.60;;;;;;214851;1280;22537;-55
2022/11/11 07:25:32;;;;;;;8.00;4.20;;;22.60;62.80;;;;;;214972;1280;26748;-54
2022/11/11 07:30:55;;;;;;;8.60;4.20;;;22.70;62.40;;;;;;215013;1275;25474;-55
2022/11/11 07:36:17;;;;;;;7.00;4.50;;;22.60;62.50;;;;;;214977;1272;24240;-56
2022/11/11 07:41:40;;;;;;;7.20;3.80;;;22.70;62.60;;;;;;214973;1280;22557;-56
2022/11/11 07:47:02;;;;;;;9.80;5.50;;;22.70;62.70;;;;;;215058;1279;25345;-56
2022/11/11 07:52:25;;;;;;;7.90;4.10;;;22.60;62.60;;;;;;214932;1280;25407;-54
2022/11/11 07:57:54;;;;;;;6.60;4.00;;;22.60;63.00;;;;;;214854;1275;22664;-55
2022/11/11 08:03:17;;;;;;;6.70;3.90;;;22.50;63.20;;;;;;214886;1297;24320;-54
2022/11/11 08:08:39;;;;;;;8.60;3.50;;;22.40;63.40;;;;;;214886;1280;24103;-57
2022/11/11 08:14:04;;;;;;;7.50;4.20;;;22.30;63.70;;;;;;214852;1278;26589;-56
2022/11/11 08:19:28;;;;;;;5.80;3.90;;;22.20;64.50;;;;;;214868;1280;25446;-56
2022/11/11 08:24:50;;;;;;;5.80;4.00;;;22.10;64.10;;;;;;214815;1278;25319;-55
2022/11/11 08:30:31;;;;;;;6.70;3.90;;;22.10;64.40;;;;;;214884;1276;26591;-55
2022/11/11 08:35:54;;;;;;;6.50;4.20;;;22.00;64.50;;;;;;214947;1294;23837;-54
2022/11/11 08:41:20;;;;;;;7.00;3.90;;;21.90;64.80;;;;;;214952;1275;25315;-55
2022/11/11 08:46:47;;;;;;;7.40;3.70;;;21.90;65.10;;;;;;214974;1272;25316;-54
2022/11/11 08:52:11;;;;;;;6.40;4.10;;;22.00;64.70;;;;;;214958;1272;23477;-54
2022/11/11 08:57:35;;;;;;;8.20;4.10;;;21.90;64.80;;;;;;214659;1280;23885;-54
2022/11/11 09:03:03;;;;;;;9.90;4.30;;;21.90;64.70;;;;;;214778;1272;25313;-55
2022/11/11 09:08:26;;;;;;;8.90;3.90;;;21.90;64.70;;;;;;214764;1272;24203;-55
2022/11/11 09:13:49;;;;;;;6.60;4.10;;;21.90;64.60;;;;;;214758;1272;23892;-55
2022/11/11 09:19:17;;;;;;;8.30;4.30;;;21.80;64.60;;;;;;214765;1273;25294;-55
2022/11/11 09:24:44;;;;;;;7.70;3.80;;;21.80;64.70;;;;;;214973;1280;22451;-54
2022/11/11 09:30:09;;;;;;;8.30;4.00;;;21.80;64.30;;;;;;214916;1279;22478;-56
2022/11/11 09:35:34;;;;;;;6.80;3.70;;;21.70;64.60;;;;;;214604;1280;25382;-55
2022/11/11 09:41:20;;;;;;;9.80;4.30;;;21.70;64.80;;;;;;214900;1279;24256;-57
2022/11/11 09:47:01;;;;;;;9.30;3.60;;;21.70;65.10;;;;;;215051;1292;22604;-56
2022/11/11 09:53:03;;;;;;;8.90;3.90;;;21.70;65.00;;;;;;214575;1280;25321;-58
2022/11/11 09:58:38;;;;;;;8.80;4.00;;;21.70;65.30;;;;;;214677;1288;24345;-56
2022/11/11 10:04:23;;;;;;;7.50;3.40;;;21.70;65.10;;;;;;214801;1280;24858;-57
2022/11/11 10:09:56;;;;;;;6.60;3.70;;;21.60;65.20;;;;;;214852;1286;22548;-57
2022/11/11 10:15:19;;;;;;;10.10;3.50;;;21.60;66.20;;;;;;215008;1273;26473;-55
2022/11/11 10:20:53;;;;;;;6.70;4.10;;;21.60;65.90;;;;;;214909;1272;26595;-55
2022/11/11 10:26:20;;;;;;;7.10;3.50;;;21.60;65.80;;;;;;214867;1280;22528;-55
2022/11/11 10:31:51;;;;;;;8.10;4.00;;;21.60;65.60;;;;;;214874;1300;23854;-55
2022/11/11 10:37:24;;;;;;;11.50;3.60;;;21.60;65.90;;;;;;214710;1272;22468;-55
2022/11/11 10:42:48;;;;;;;9.60;3.40;;;21.60;65.90;;;;;;214931;1275;25343;-56
2022/11/11 10:48:20;;;;;;;8.10;3.80;;;21.50;66.10;;;;;;214948;1280;24338;-56
2022/11/11 10:53:59;;;;;;;13.20;4.00;;;21.60;66.10;;;;;;215076;1272;25325;-57
2022/11/11 10:59:28;;;;;;;12.30;4.00;;;21.50;66.10;;;;;;215129;1295;22496;-56
2022/11/11 11:05:04;;;;;;;8.80;4.20;;;21.50;66.00;;;;;;214828;1279;25393;-56
2022/11/11 11:10:40;;;;;;;12.80;4.00;;;21.50;66.10;;;;;;214802;1278;25377;-57
2022/11/11 11:16:07;;;;;;;9.40;4.60;;;21.40;66.00;;;;;;214849;1286;26493;-56
2022/11/11 11:21:58;;;;;;;7.20;3.30;;;21.50;66.00;;;;;;215010;1295;25304;-55
2022/11/11 11:27:25;;;;;;;6.50;3.40;;;21.50;66.10;;;;;;214909;1272;25799;-56
2022/11/11 11:33:00;;;;;;;7.50;3.40;;;21.50;66.10;;;;;;214930;1280;25592;-57
2022/11/11 11:38:41;;;;;;;12.70;3.70;;;21.50;66.10;;;;;;214819;1280;25280;-58
2022/11/11 11:44:33;;;;;;;4.90;3.20;;;21.50;66.20;;;;;;214865;1272;22582;-56
2022/11/11 11:50:02;;;;;;;13.30;3.90;;;21.50;66.10;;;;;;214767;1282;22468;-56
2022/11/11 11:55:45;;;;;;;16.40;4.00;;;21.50;65.90;;;;;;214889;1285;26497;-56
2022/11/11 12:01:16;;;;;;;9.50;3.90;;;21.60;65.70;;;;;;214809;1279;25450;-53
2022/11/11 12:07:01;;;;;;;11.10;3.60;;;21.60;65.70;;;;;;214993;1272;25333;-54
2022/11/11 12:12:36;;;;;;;16.00;4.00;;;21.60;65.70;;;;;;214752;1286;22467;-53
2022/11/11 12:18:44;;;;;;;12.60;3.80;;;21.70;65.70;;;;;;215053;1278;22478;-54
2022/11/11 12:24:45;;;;;;;16.70;5.10;;;21.70;65.50;;;;;;213657;1294;23896;-54
2022/11/11 12:30:13;;;;;;;11.30;3.80;;;21.70;65.40;;;;;;213587;1277;25350;-55
2022/11/11 12:35:58;;;;;;;9.10;3.30;;;21.60;66.20;;;;;;214716;1272;22582;-53
2022/11/11 12:41:50;;;;;;;6.30;3.80;;;21.60;65.90;;;;;;214891;1272;26487;-53
2022/11/11 12:47:50;;;;;;;12.00;2.90;;;21.60;65.40;;;;;;214892;1280;25384;-56
2022/11/11 12:53:42;;;;;;;11.50;3.90;;;21.60;65.70;;;;;;214964;1279;25257;-55
2022/11/11 12:59:18;;;;;;;12.20;3.60;;;21.60;66.00;;;;;;214963;1280;25296;-53
2022/11/11 13:04:43;;;;;;;20.60;3.20;;;21.50;65.80;;;;;;214959;1279;22520;-54
2022/11/11 13:10:16;;;;;;;12.70;3.60;;;21.50;66.00;;;;;;214918;1272;24278;-54
2022/11/11 13:15:40;;;;;;;15.80;3.00;;;21.50;66.10;;;;;;214875;1280;24438;-52
2022/11/11 13:21:12;;;;;;;15.80;3.40;;;21.50;66.30;;;;;;214801;1279;25413;-55
2022/11/11 13:26:39;;;;;;;12.20;3.40;;;21.50;66.10;;;;;;214833;1276;23895;-54
2022/11/11 13:32:08;;;;;;;16.30;4.30;;;21.50;66.20;;;;;;214889;1280;25385;-54
2022/11/11 13:37:32;;;;;;;8.20;3.40;;;21.60;65.90;;;;;;214826;1272;22664;-54
2022/11/11 13:42:57;;;;;;;17.00;3.40;;;21.50;65.70;;;;;;216160;1275;24297;-54
2022/11/11 13:48:45;;;;;;;7.50;3.20;;;21.40;66.10;;;;;;214886;1280;25440;-53
2022/11/11 13:54:26;;;;;;;9.00;2.90;;;21.40;66.10;;;;;;214926;1286;22483;-54
2022/11/11 13:59:59;;;;;;;9.90;3.30;;;21.40;66.30;;;;;;214860;1279;23879;-54
2022/11/11 14:05:24;;;;;;;6.70;3.40;;;21.40;66.70;;;;;;214798;1275;22842;-57
2022/11/11 14:11:03;;;;;;;12.30;3.50;;;21.30;67.40;;;;;;214769;1279;25986;-59
2022/11/11 14:16:34;;;;;;;12.00;3.90;;;21.40;67.00;;;;;;214743;1272;25349;-58
2022/11/11 14:22:01;;;;;;;12.30;4.00;;;21.50;67.10;;;;;;214849;1279;24205;-57
2022/11/11 14:27:32;;;;;;;9.90;3.40;;;21.40;68.00;;;;;;214789;1279;22463;-54
2022/11/11 14:33:38;;;;;;;9.10;3.30;;;21.40;67.60;;;;;;214710;1303;25531;-56
2022/11/11 14:39:38;;;;;;;6.80;3.10;;;21.40;67.70;;;;;;214762;1279;24251;-58
2022/11/11 14:45:29;;;;;;;8.20;3.40;;;21.40;67.60;;;;;;214753;1272;26607;-56
2022/11/11 14:51:03;;;;;;;6.20;3.40;;;21.30;67.60;;;;;;214706;1271;22476;-57
2022/11/11 14:56:27;;;;;;;9.10;3.00;;;21.30;67.50;;;;;;214821;1278;24367;-54
2022/11/11 15:01:53;;;;;;;11.00;3.50;;;21.30;67.60;;;;;;214742;1278;25473;-52
2022/11/11 15:07:31;;;;;;;13.90;3.20;;;21.30;67.60;;;;;;214859;1272;23555;-49
2022/11/11 15:13:20;;;;;;;9.80;3.10;;;21.30;67.70;;;;;;214714;1278;25314;-50
2022/11/11 15:19:00;;;;;;;9.60;3.70;;;21.30;67.60;;;;;;214848;1278;23865;-53
2022/11/11 15:25:09;;;;;;;13.80;3.60;;;21.20;67.50;;;;;;214824;1279;25384;-53
2022/11/11 15:30:54;;;;;;;12.10;3.70;;;21.30;67.50;;;;;;214803;1279;25444;-53
2022/11/11 15:36:41;;;;;;;8.80;3.40;;;21.20;67.30;;;;;;214883;1272;22466;-54
2022/11/11 15:42:31;;;;;;;;;;;21.20;67.20;;;;;;214786;1278;23822;-52
2022/11/11 15:47:57;;;;;;;9.70;2.90;;;21.20;67.70;;;;;;214756;1282;25127;-51
2022/11/11 15:53:32;;;;;;;16.20;3.50;;;21.30;67.70;;;;;;214758;1272;23905;-50
2022/11/11 15:58:54;;;;;;;10.70;3.80;;;21.20;67.70;;;;;;214677;1278;22482;-52
2022/11/11 16:04:21;;;;;;;12.60;4.60;;;21.20;67.60;;;;;;214786;1285;25245;-53
2022/11/11 16:10:25;;;;;;;10.40;3.20;;;21.20;67.90;;;;;;214941;1286;25846;-50
2022/11/11 16:15:58;;;;;;;13.10;4.40;;;21.50;66.50;;;;;;214831;1282;23860;-51
2022/11/11 16:21:46;;;;;;;8.50;3.40;;;21.20;67.00;;;;;;214905;1280;25998;-54
2022/11/11 16:27:27;;;;;;;8.20;3.70;;;21.10;66.80;;;;;;214855;1280;22559;-53
2022/11/11 16:33:03;;;;;;;11.30;4.20;;;21.10;66.50;;;;;;214813;1276;22830;-52
2022/11/11 16:38:38;;;;;;;12.60;4.10;;;21.20;66.50;;;;;;214840;1286;23886;-53
2022/11/11 16:44:22;;;;;;;8.40;3.90;;;21.10;66.20;;;;;;214827;1279;25297;-52
2022/11/11 16:50:04;;;;;;;12.50;4.30;;;21.10;65.90;;;;;;214799;1286;26482;-52
2022/11/11 16:55:36;;;;;;;8.60;3.40;;;21.10;65.90;;;;;;214682;1278;23859;-53
2022/11/11 17:01:03;;;;;;;8.90;3.80;;;21.10;65.90;;;;;;214886;1300;26102;-56
2022/11/11 17:06:56;;;;;;;10.10;4.20;;;21.10;65.70;;;;;;214933;1285;24278;-51
2022/11/11 17:12:39;;;;;;;7.10;4.00;;;21.10;65.30;;;;;;215037;1286;25851;-52
2022/11/11 17:18:07;;;;;;;11.70;4.00;;;21.00;65.40;;;;;;215016;1276;24182;-50
2022/11/11 17:23:38;;;;;;;8.80;4.70;;;21.00;65.30;;;;;;214853;1279;22519;-52
2022/11/11 17:29:22;;;;;;;8.90;4.10;;;21.00;64.80;;;;;;214792;1285;25376;-52
2022/11/11 17:34:49;;;;;;;9.10;3.80;;;21.00;65.00;;;;;;214877;1296;24056;-53
2022/11/11 17:40:12;;;;;;;7.90;4.70;;;21.00;64.80;;;;;;214885;1279;24247;-52
2022/11/11 17:45:35;;;;;;;12.10;4.50;;;21.00;64.60;;;;;;214815;1280;24366;-51
2022/11/11 17:50:58;;;;;;;8.10;4.50;;;21.00;64.80;;;;;;214849;1285;23872;-52
2022/11/11 17:56:20;;;;;;;14.10;5.30;;;21.00;64.50;;;;;;214959;1280;22536;-52
2022/11/11 18:01:45;;;;;;;13.40;5.30;;;21.00;64.40;;;;;;214916;1276;25297;-50
2022/11/11 18:07:08;;;;;;;16.60;8.80;;;20.90;64.60;;;;;;214873;1279;25374;-52
2022/11/11 18:12:31;;;;;;;16.60;7.80;;;21.00;65.20;;;;;;214479;1278;489311;-52
2022/11/11 18:17:54;;;;;;;13.80;7.80;;;21.00;64.90;;;;;;214904;1284;22492;-50
2022/11/11 18:23:17;;;;;;;14.20;7.30;;;21.00;65.10;;;;;;214885;1279;24368;-54
2022/11/11 18:28:40;;;;;;;12.90;6.50;;;21.00;64.70;;;;;;214914;1286;25244;-51
2022/11/11 18:34:03;;;;;;;11.90;7.40;;;20.90;64.70;;;;;;214782;1278;23862;-53
2022/11/11 18:39:30;;;;;;;12.90;7.50;;;20.90;64.50;;;;;;214792;1271;22490;-53
2022/11/11 18:44:53;;;;;;;12.10;6.90;;;20.90;64.60;;;;;;214784;1278;24002;-52
2022/11/11 18:50:16;;;;;;;11.30;6.50;;;20.90;64.60;;;;;;214734;1272;26607;-53
2022/11/11 18:55:39;;;;;;;14.10;6.90;;;20.80;64.50;;;;;;214961;1278;23847;-53
2022/11/11 19:01:04;;;;;;;13.50;7.20;;;20.80;64.50;;;;;;214856;1286;25321;-52
2022/11/11 19:06:35;;;;;;;13.60;7.50;;;20.80;64.50;;;;;;214822;1278;26466;-53
2022/11/11 19:11:58;;;;;;;11.20;6.90;;;20.80;64.60;;;;;;214914;1280;25263;-52
2022/11/11 19:17:22;;;;;;;16.20;7.40;;;20.80;64.80;;;;;;215026;1293;23878;-51
2022/11/11 19:22:45;;;;;;;13.20;7.60;;;20.80;64.70;;;;;;214949;1279;22762;-51
2022/11/11 19:28:09;;;;;;;12.40;6.80;;;20.80;64.80;;;;;;214963;1272;22461;-52
2022/11/11 19:33:43;;;;;;;14.10;6.70;;;20.80;64.90;;;;;;214854;1279;22674;-52
2022/11/11 19:39:16;;;;;;;12.90;6.90;;;20.80;64.70;;;;;;214919;1278;25454;-50
2022/11/11 19:44:39;;;;;;;12.40;7.70;;;20.80;64.80;;;;;;214884;1271;25376;-51
2022/11/11 19:50:02;;;;;;;14.90;7.80;;;20.90;65.00;;;;;;214690;1278;25280;-56
2022/11/11 19:55:27;;;;;;;16.60;8.30;;;20.90;65.10;;;;;;214887;1278;25339;-53
2022/11/11 20:00:49;;;;;;;13.20;7.80;;;20.90;64.90;;;;;;214719;1279;25321;-53
2022/11/11 20:06:20;;;;;;;13.10;7.80;;;20.90;64.90;;;;;;214974;1276;22461;-53
2022/11/11 20:11:52;;;;;;;13.40;8.70;;;20.90;65.10;;;;;;214913;1285;24597;-52
2022/11/11 20:17:15;;;;;;;16.40;8.60;;;20.90;65.00;;;;;;214942;1280;22468;-54
2022/11/11 20:22:41;;;;;;;16.50;8.50;;;20.90;64.90;;;;;;215049;1279;25287;-51
2022/11/11 20:28:03;;;;;;;13.90;7.50;;;20.90;65.00;;;;;;214869;1272;24247;-52
2022/11/11 20:33:29;;;;;;;16.40;8.80;;;20.90;65.40;;;;;;214895;1277;25396;-53
2022/11/11 20:38:52;;;;;;;17.80;9.50;;;21.00;67.10;;;;;;215043;1295;25545;-53
2022/11/11 20:44:15;;;;;;;19.40;8.70;;;21.00;64.90;;;;;;214806;1280;23839;-57
2022/11/11 20:49:54;;;;;;;20.10;9.00;;;21.10;65.00;;;;;;215151;1287;22462;-54
2022/11/11 20:55:29;;;;;;;16.50;9.00;;;21.10;65.10;;;;;;215063;1287;25406;-53
2022/11/11 21:01:17;;;;;;;16.10;9.40;;;21.10;64.60;;;;;;214929;1286;25419;-54
2022/11/11 21:06:53;;;;;;;20.50;9.40;;;21.10;64.90;;;;;;214913;1280;22460;-54
2022/11/11 21:12:26;;;;;;;22.60;10.00;;;21.00;65.00;;;;;;214803;1286;22743;-55
2022/11/11 21:17:50;;;;;;;15.70;9.40;;;21.00;64.40;;;;;;214810;1283;24193;-56
2022/11/11 21:23:50;;;;;;;18.20;9.10;;;20.90;64.20;;;;;;214841;1283;24104;-55
2022/11/11 21:29:26;;;;;;;17.30;9.40;;;20.90;64.30;;;;;;214853;1279;22472;-57
2022/11/11 21:35:06;;;;;;;17.70;10.00;;;20.90;64.10;;;;;;214960;1280;22477;-54
2022/11/11 21:40:47;;;;;;;19.20;11.20;;;20.90;64.20;;;;;;215666;1292;22589;-52
2022/11/11 21:46:18;;;;;;;21.60;10.30;;;20.80;64.20;;;;;;214959;1275;22518;-54
2022/11/11 21:51:51;;;;;;;19.10;10.90;;;20.70;64.20;;;;;;214929;1279;22471;-54
2022/11/11 21:57:24;;;;;;;18.10;9.50;;;20.70;64.20;;;;;;214767;1286;23854;-54
2022/11/11 22:03:05;;;;;;;17.20;9.90;;;20.70;64.40;;;;;;215053;1282;22466;-52
2022/11/11 22:08:43;;;;;;;19.10;9.90;;;20.60;64.40;;;;;;214732;1283;25297;-54
2022/11/11 22:14:19;;;;;;;16.50;9.20;;;20.60;65.10;;;;;;215079;1275;22705;-53
2022/11/11 22:20:38;;;;;;;16.20;8.40;;;20.60;64.80;;;;;;215236;1289;22464;-53
2022/11/11 22:26:20;;;;;;;15.80;9.80;;;20.70;67.40;;;;;;214867;1285;22464;-53
2022/11/11 22:32:34;;;;;;;28.30;9.70;;;20.70;67.10;;;;;;214719;1288;23516;-52
2022/11/11 22:38:24;;;;;;;13.90;8.90;;;20.70;66.70;;;;;;214808;1283;24031;-52
2022/11/11 22:44:01;;;;;;;16.20;8.20;;;20.70;67.10;;;;;;214953;1284;22528;-52
2022/11/11 22:49:29;;;;;;;14.80;8.90;;;20.70;67.00;;;;;;214936;1286;24241;-53
2022/11/11 22:55:11;;;;;;;12.20;7.50;;;20.70;67.10;;;;;;214802;1286;23879;-53
2022/11/11 23:01:21;;;;;;;16.30;9.20;;;20.70;67.20;;;;;;214860;1280;22538;-54
2022/11/11 23:07:05;;;;;;;15.60;9.10;;;20.60;67.70;;;;;;214825;1283;23207;-53
2022/11/11 23:12:44;;;;;;;13.40;8.70;;;21.00;66.30;;;;;;214848;1272;24056;-54
2022/11/11 23:18:42;;;;;;;10.80;7.80;;;21.30;65.50;;;;;;214796;1301;25328;-53
2022/11/11 23:24:26;;;;;;;13.70;8.70;;;21.60;65.00;;;;;;214831;1280;25362;-53
2022/11/11 23:29:53;;;;;;;11.90;7.60;;;21.70;64.40;;;;;;214702;1280;24249;-53
2022/11/11 23:35:46;;;;;;;12.40;8.60;;;21.80;64.00;;;;;;214933;1285;22454;-55
2022/11/11 23:41:19;;;;;;;17.40;8.30;;;21.90;63.80;;;;;;214816;1272;24819;-53
2022/11/11 23:46:58;;;;;;;14.40;8.00;;;22.10;65.70;;;;;;215110;1286;24278;-51
2022/11/11 23:52:41;;;;;;;13.60;8.10;;;22.20;64.60;;;;;;214904;1280;25505;-54
2022/11/11 23:58:40;;;;;;;15.80;8.20;;;22.30;63.80;;;;;;214898;1276;24273;-54
